sensor_id;sensor_type;location;lat;lon;timestamp;pressure;altitude;pressure_sealevel;temperature
74750;BMP280;63269;53.330;-6.288;2023-05-07T00:01:15;101117.41;;;22.91
74750;BMP280;63269;53.330;-6.288;2023-05-07T00:03:41;101121.72;;;22.88
74750;BMP280;63269;53.330;-6.288;2023-05-07T00:06:06;101119.44;;;22.86
74750;BMP280;63269;53.330;-6.288;2023-05-07T00:08:32;101125.25;;;22.85
74750;BMP280;63269;53.330;-6.288;2023-05-07T00:10:57;101123.78;;;22.84
74750;BMP280;63269;53.330;-6.288;2023-05-07T00:13:23;101122.69;;;22.81
74750;BMP280;63269;53.330;-6.288;2023-05-07T00:15:48;101122.69;;;22.81
74750;BMP280;63269;53.330;-6.288;2023-05-07T00:18:13;101121.22;;;22.80
74750;BMP280;63269;53.330;-6.288;2023-05-07T00:20:39;101121.66;;;22.79
74750;BMP280;63269;53.330;-6.288;2023-05-07T00:23:05;101124.03;;;22.77
74750;BMP280;63269;53.330;-6.288;2023-05-07T00:25:30;101127.16;;;22.75
74750;BMP280;63269;53.330;-6.288;2023-05-07T00:27:55;101130.56;;;22.76
74750;BMP280;63269;53.330;-6.288;2023-05-07T00:30:22;101129.06;;;22.75
74750;BMP280;63269;53.330;-6.288;2023-05-07T00:32:48;101121.91;;;22.72
74750;BMP280;63269;53.330;-6.288;2023-05-07T00:35:14;101127.56;;;22.74
74750;BMP280;63269;53.330;-6.288;2023-05-07T00:37:39;101128.78;;;22.73
74750;BMP280;63269;53.330;-6.288;2023-05-07T00:40:05;101127.25;;;22.72
74750;BMP280;63269;53.330;-6.288;2023-05-07T00:42:33;101129.19;;;22.71
74750;BMP280;63269;53.330;-6.288;2023-05-07T00:44:58;101132.63;;;22.72
74750;BMP280;63269;53.330;-6.288;2023-05-07T00:47:25;101135.00;;;22.70
74750;BMP280;63269;53.330;-6.288;2023-05-07T00:49:51;101140.34;;;22.70
74750;BMP280;63269;53.330;-6.288;2023-05-07T00:52:17;101134.25;;;22.69
74750;BMP280;63269;53.330;-6.288;2023-05-07T00:54:45;101136.91;;;22.69
74750;BMP280;63269;53.330;-6.288;2023-05-07T00:57:10;101146.09;;;22.68
74750;BMP280;63269;53.330;-6.288;2023-05-07T00:59:38;101144.63;;;22.67
74750;BMP280;63269;53.330;-6.288;2023-05-07T01:02:06;101138.50;;;22.67
74750;BMP280;63269;53.330;-6.288;2023-05-07T01:04:31;101141.19;;;22.67
74750;BMP280;63269;53.330;-6.288;2023-05-07T01:06:58;101142.41;;;22.66
74750;BMP280;63269;53.330;-6.288;2023-05-07T01:09:24;101141.63;;;22.65
74750;BMP280;63269;53.330;-6.288;2023-05-07T01:11:51;101132.88;;;22.64
74750;BMP280;63269;53.330;-6.288;2023-05-07T01:14:18;101132.88;;;22.64
74750;BMP280;63269;53.330;-6.288;2023-05-07T01:16:44;101129.47;;;22.64
74750;BMP280;63269;53.330;-6.288;2023-05-07T01:19:11;101133.31;;;22.63
74750;BMP280;63269;53.330;-6.288;2023-05-07T01:21:40;101136.72;;;22.63
74750;BMP280;63269;53.330;-6.288;2023-05-07T01:24:10;101137.13;;;22.62
74750;BMP280;63269;53.330;-6.288;2023-05-07T01:26:38;101143.69;;;22.61
74750;BMP280;63269;53.330;-6.288;2023-05-07T01:29:03;101147.84;;;22.62
74750;BMP280;63269;53.330;-6.288;2023-05-07T01:31:29;101152.47;;;22.61
74750;BMP280;63269;53.330;-6.288;2023-05-07T01:33:56;101153.19;;;22.62
74750;BMP280;63269;53.330;-6.288;2023-05-07T01:36:22;101151.72;;;22.61
74750;BMP280;63269;53.330;-6.288;2023-05-07T01:38:51;101147.97;;;22.58
74750;BMP280;63269;53.330;-6.288;2023-05-07T01:41:17;101151.38;;;22.59
74750;BMP280;63269;53.330;-6.288;2023-05-07T01:43:43;101158.69;;;22.58
74750;BMP280;63269;53.330;-6.288;2023-05-07T01:46:09;101154.06;;;22.59
74750;BMP280;63269;53.330;-6.288;2023-05-07T01:48:35;101160.59;;;22.58
74750;BMP280;63269;53.330;-6.288;2023-05-07T01:51:01;101156.44;;;22.57
74750;BMP280;63269;53.330;-6.288;2023-05-07T01:53:27;101151.09;;;22.57
74750;BMP280;63269;53.330;-6.288;2023-05-07T01:55:53;101155.69;;;22.56
74750;BMP280;63269;53.330;-6.288;2023-05-07T01:58:19;101158.34;;;22.56
74750;BMP280;63269;53.330;-6.288;2023-05-07T02:00:44;101164.88;;;22.55
74750;BMP280;63269;53.330;-6.288;2023-05-07T02:03:10;101164.88;;;22.55
74750;BMP280;63269;53.330;-6.288;2023-05-07T02:05:36;101168.31;;;22.56
74750;BMP280;63269;53.330;-6.288;2023-05-07T02:08:02;101165.31;;;22.54
74750;BMP280;63269;53.330;-6.288;2023-05-07T02:10:27;101171.44;;;22.54
74750;BMP280;63269;53.330;-6.288;2023-05-07T02:12:53;101165.31;;;22.54
74750;BMP280;63269;53.330;-6.288;2023-05-07T02:15:18;101173.78;;;22.52
74750;BMP280;63269;53.330;-6.288;2023-05-07T02:18:01;101169.19;;;22.53
74750;BMP280;63269;53.330;-6.288;2023-05-07T02:20:27;101175.72;;;22.52
74750;BMP280;63269;53.330;-6.288;2023-05-07T02:22:53;101178.38;;;22.52
74750;BMP280;63269;53.330;-6.288;2023-05-07T02:25:18;101175.72;;;22.52
74750;BMP280;63269;53.330;-6.288;2023-05-07T02:27:44;101167.69;;;22.52
74750;BMP280;63269;53.330;-6.288;2023-05-07T02:30:10;101174.19;;;22.51
74750;BMP280;63269;53.330;-6.288;2023-05-07T02:32:35;101176.88;;;22.51
74750;BMP280;63269;53.330;-6.288;2023-05-07T02:35:01;101172.72;;;22.50
74750;BMP280;63269;53.330;-6.288;2023-05-07T02:37:26;101178.84;;;22.50
74750;BMP280;63269;53.330;-6.288;2023-05-07T02:39:51;101178.06;;;22.50
74750;BMP280;63269;53.330;-6.288;2023-05-07T02:42:17;101172.72;;;22.50
74750;BMP280;63269;53.330;-6.288;2023-05-07T02:44:42;101167.78;;;22.48
74750;BMP280;63269;53.330;-6.288;2023-05-07T02:47:07;101161.72;;;22.48
74750;BMP280;63269;53.330;-6.288;2023-05-07T02:49:34;101167.06;;;22.48
74750;BMP280;63269;53.330;-6.288;2023-05-07T02:52:00;101169.72;;;22.48
74750;BMP280;63269;53.330;-6.288;2023-05-07T02:54:25;101167.06;;;22.48
74750;BMP280;63269;53.330;-6.288;2023-05-07T02:56:51;101162.88;;;22.47
74750;BMP280;63269;53.330;-6.288;2023-05-07T02:59:16;101169.00;;;22.47
74750;BMP280;63269;53.330;-6.288;2023-05-07T03:01:41;101173.56;;;22.47
74750;BMP280;63269;53.330;-6.288;2023-05-07T03:04:09;101174.03;;;22.45
74750;BMP280;63269;53.330;-6.288;2023-05-07T03:06:35;101166.00;;;22.45
74750;BMP280;63269;53.330;-6.288;2023-05-07T03:09:01;101171.34;;;22.45
74750;BMP280;63269;53.330;-6.288;2023-05-07T03:11:27;101173.28;;;22.44
74750;BMP280;63269;53.330;-6.288;2023-05-07T03:13:52;101177.13;;;22.43
74750;BMP280;63269;53.330;-6.288;2023-05-07T03:16:17;101179.78;;;22.43
74750;BMP280;63269;53.330;-6.288;2023-05-07T03:18:43;101184.41;;;22.43
74750;BMP280;63269;53.330;-6.288;2023-05-07T03:21:08;101185.59;;;22.42
74750;BMP280;63269;53.330;-6.288;2023-05-07T03:23:34;101189.00;;;22.42
74750;BMP280;63269;53.330;-6.288;2023-05-07T03:25:59;101192.09;;;22.41
74750;BMP280;63269;53.330;-6.288;2023-05-07T03:28:24;101191.38;;;22.40
74750;BMP280;63269;53.330;-6.288;2023-05-07T03:30:50;101187.94;;;22.40
74750;BMP280;63269;53.330;-6.288;2023-05-07T03:33:15;101189.84;;;22.39
74750;BMP280;63269;53.330;-6.288;2023-05-07T03:35:41;101192.53;;;22.39
74750;BMP280;63269;53.330;-6.288;2023-05-07T03:38:07;101191.78;;;22.39
74750;BMP280;63269;53.330;-6.288;2023-05-07T03:40:32;101198.31;;;22.38
74750;BMP280;63269;53.330;-6.288;2023-05-07T03:42:58;101196.81;;;22.37
74750;BMP280;63269;53.330;-6.288;2023-05-07T03:45:24;101199.50;;;22.37
74750;BMP280;63269;53.330;-6.288;2023-05-07T03:47:50;101200.69;;;22.36
74750;BMP280;63269;53.330;-6.288;2023-05-07T03:50:15;101202.59;;;22.35
74750;BMP280;63269;53.330;-6.288;2023-05-07T03:52:41;101207.94;;;22.35
74750;BMP280;63269;53.330;-6.288;2023-05-07T03:55:06;101209.44;;;22.36
74750;BMP280;63269;53.330;-6.288;2023-05-07T03:57:32;101204.97;;;22.33
74750;BMP280;63269;53.330;-6.288;2023-05-07T03:59:58;101206.88;;;22.33
74750;BMP280;63269;53.330;-6.288;2023-05-07T04:02:23;101204.97;;;22.33
74750;BMP280;63269;53.330;-6.288;2023-05-07T04:04:49;101200.03;;;22.32
74750;BMP280;63269;53.330;-6.288;2023-05-07T04:07:15;101207.28;;;22.31
74750;BMP280;63269;53.330;-6.288;2023-05-07T04:09:40;101213.88;;;22.30
74750;BMP280;63269;53.330;-6.288;2023-05-07T04:12:06;101205.06;;;22.30
74750;BMP280;63269;53.330;-6.288;2023-05-07T04:14:31;101205.06;;;22.30
74750;BMP280;63269;53.330;-6.288;2023-05-07T04:17:00;101203.59;;;22.29
74750;BMP280;63269;53.330;-6.288;2023-05-07T04:19:25;101203.59;;;22.29
74750;BMP280;63269;53.330;-6.288;2023-05-07T04:21:50;101210.84;;;22.28
74750;BMP280;63269;53.330;-6.288;2023-05-07T04:24:16;101218.13;;;22.28
74750;BMP280;63269;53.330;-6.288;2023-05-07T04:26:41;101220.03;;;22.27
74750;BMP280;63269;53.330;-6.288;2023-05-07T04:29:07;101216.63;;;22.27
74750;BMP280;63269;53.330;-6.288;2023-05-07T04:31:32;101220.47;;;22.26
74750;BMP280;63269;53.330;-6.288;2023-05-07T04:33:58;101210.66;;;22.22
74750;BMP280;63269;53.330;-6.288;2023-05-07T04:36:23;101214.06;;;22.23
74750;BMP280;63269;53.330;-6.288;2023-05-07T04:38:53;101215.56;;;22.24
74750;BMP280;63269;53.330;-6.288;2023-05-07T04:41:19;101218.22;;;22.24
74750;BMP280;63269;53.330;-6.288;2023-05-07T04:43:44;101216.75;;;22.23
74750;BMP280;63269;53.330;-6.288;2023-05-07T04:46:10;101230.09;;;22.23
74750;BMP280;63269;53.330;-6.288;2023-05-07T04:48:36;101225.19;;;22.21
74750;BMP280;63269;53.330;-6.288;2023-05-07T04:51:01;101230.53;;;22.21
74750;BMP280;63269;53.330;-6.288;2023-05-07T04:53:26;101226.38;;;22.20
74750;BMP280;63269;53.330;-6.288;2023-05-07T04:55:58;101227.13;;;22.21
74750;BMP280;63269;53.330;-6.288;2023-05-07T04:58:24;101223.38;;;22.18
74750;BMP280;63269;53.330;-6.288;2023-05-07T05:00:49;101224.88;;;22.19
74750;BMP280;63269;53.330;-6.288;2023-05-07T05:03:15;101226.78;;;22.19
74750;BMP280;63269;53.330;-6.288;2023-05-07T05:05:40;101237.94;;;22.17
74750;BMP280;63269;53.330;-6.288;2023-05-07T05:08:06;101236.44;;;22.16
74750;BMP280;63269;53.330;-6.288;2023-05-07T05:10:31;101231.81;;;22.17
74750;BMP280;63269;53.330;-6.288;2023-05-07T05:12:57;101238.31;;;22.16
74750;BMP280;63269;53.330;-6.288;2023-05-07T05:15:22;101232.25;;;22.15
74750;BMP280;63269;53.330;-6.288;2023-05-07T05:17:47;101233.75;;;22.16
74750;BMP280;63269;53.330;-6.288;2023-05-07T05:20:13;101238.31;;;22.16
74750;BMP280;63269;53.330;-6.288;2023-05-07T05:22:39;101244.13;;;22.14
74750;BMP280;63269;53.330;-6.288;2023-05-07T05:25:04;101235.38;;;22.14
74750;BMP280;63269;53.330;-6.288;2023-05-07T05:27:30;101241.88;;;22.13
74750;BMP280;63269;53.330;-6.288;2023-05-07T05:29:55;101241.13;;;22.12
74750;BMP280;63269;53.330;-6.288;2023-05-07T05:32:21;101240.38;;;22.12
74750;BMP280;63269;53.330;-6.288;2023-05-07T05:34:46;101252.25;;;22.11
74750;BMP280;63269;53.330;-6.288;2023-05-07T05:37:12;101244.97;;;22.11
74750;BMP280;63269;53.330;-6.288;2023-05-07T05:39:37;101243.47;;;22.10
74750;BMP280;63269;53.330;-6.288;2023-05-07T05:42:02;101244.69;;;22.09
74750;BMP280;63269;53.330;-6.288;2023-05-07T05:44:28;101239.31;;;22.09
74750;BMP280;63269;53.330;-6.288;2023-05-07T05:46:53;101247.34;;;22.09
74750;BMP280;63269;53.330;-6.288;2023-05-07T05:49:24;101243.16;;;22.08
74750;BMP280;63269;53.330;-6.288;2023-05-07T05:51:49;101250.44;;;22.08
74750;BMP280;63269;53.330;-6.288;2023-05-07T05:54:15;101245.53;;;22.06
74750;BMP280;63269;53.330;-6.288;2023-05-07T05:56:41;101249.25;;;22.09
74750;BMP280;63269;53.330;-6.288;2023-05-07T05:59:06;101248.97;;;22.07
74750;BMP280;63269;53.330;-6.288;2023-05-07T06:01:32;101242.88;;;22.06
74750;BMP280;63269;53.330;-6.288;2023-05-07T06:03:57;101248.97;;;22.07
74750;BMP280;63269;53.330;-6.288;2023-05-07T06:06:23;101250.88;;;22.06
74750;BMP280;63269;53.330;-6.288;2023-05-07T06:08:48;101252.78;;;22.06
74750;BMP280;63269;53.330;-6.288;2023-05-07T06:11:14;101252.03;;;22.05
74750;BMP280;63269;53.330;-6.288;2023-05-07T06:13:39;101259.31;;;22.05
74750;BMP280;63269;53.330;-6.288;2023-05-07T06:16:05;101255.13;;;22.03
74750;BMP280;63269;53.330;-6.288;2023-05-07T06:18:30;101261.66;;;22.02
74750;BMP280;63269;53.330;-6.288;2023-05-07T06:20:56;101261.66;;;22.02
74750;BMP280;63269;53.330;-6.288;2023-05-07T06:23:21;101258.25;;;22.02
74750;BMP280;63269;53.330;-6.288;2023-05-07T06:25:50;101260.94;;;22.02
74750;BMP280;63269;53.330;-6.288;2023-05-07T06:28:15;101264.75;;;22.01
74750;BMP280;63269;53.330;-6.288;2023-05-07T06:30:41;101269.69;;;22.02
74750;BMP280;63269;53.330;-6.288;2023-05-07T06:33:06;101279.28;;;22.00
74750;BMP280;63269;53.330;-6.288;2023-05-07T06:35:32;101278.13;;;22.01
74750;BMP280;63269;53.330;-6.288;2023-05-07T06:37:57;101293.41;;;22.00
74750;BMP280;63269;53.330;-6.288;2023-05-07T06:40:22;101292.22;;;22.01
74750;BMP280;63269;53.330;-6.288;2023-05-07T06:42:48;101291.91;;;21.99
74750;BMP280;63269;53.330;-6.288;2023-05-07T06:45:13;101290.72;;;22.00
74750;BMP280;63269;53.330;-6.288;2023-05-07T06:47:39;101298.75;;;22.00
74750;BMP280;63269;53.330;-6.288;2023-05-07T06:50:05;101305.25;;;21.99
74750;BMP280;63269;53.330;-6.288;2023-05-07T06:52:30;101306.00;;;22.00
74750;BMP280;63269;53.330;-6.288;2023-05-07T06:54:56;101308.66;;;22.00
74750;BMP280;63269;53.330;-6.288;2023-05-07T06:57:21;101308.66;;;22.00
74750;BMP280;63269;53.330;-6.288;2023-05-07T06:59:47;101307.94;;;21.99
74750;BMP280;63269;53.330;-6.288;2023-05-07T07:02:12;101309.84;;;21.99
74750;BMP280;63269;53.330;-6.288;2023-05-07T07:04:38;101303.78;;;21.98
74750;BMP280;63269;53.330;-6.288;2023-05-07T07:07:03;101308.38;;;21.98
74750;BMP280;63269;53.330;-6.288;2023-05-07T07:09:28;101315.94;;;21.99
74750;BMP280;63269;53.330;-6.288;2023-05-07T07:11:54;101322.03;;;22.00
74750;BMP280;63269;53.330;-6.288;2023-05-07T07:14:19;101324.59;;;22.03
74750;BMP280;63269;53.330;-6.288;2023-05-07T07:16:45;101331.03;;;22.06
74750;BMP280;63269;53.330;-6.288;2023-05-07T07:19:12;101320.97;;;22.10
74750;BMP280;63269;53.330;-6.288;2023-05-07T07:21:37;101326.94;;;22.14
74750;BMP280;63269;53.330;-6.288;2023-05-07T07:24:03;101325.34;;;22.17
74750;BMP280;63269;53.330;-6.288;2023-05-07T07:26:28;101322.56;;;22.20
74750;BMP280;63269;53.330;-6.288;2023-05-07T07:28:53;101329.72;;;22.23
74750;BMP280;63269;53.330;-6.288;2023-05-07T07:31:19;101321.59;;;22.27
74750;BMP280;63269;53.330;-6.288;2023-05-07T07:33:44;101328.03;;;22.30
74750;BMP280;63269;53.330;-6.288;2023-05-07T07:36:10;101320.31;;;22.32
74750;BMP280;63269;53.330;-6.288;2023-05-07T07:38:35;101326.00;;;22.34
74750;BMP280;63269;53.330;-6.288;2023-05-07T07:41:01;101325.44;;;22.39
74750;BMP280;63269;53.330;-6.288;2023-05-07T07:43:26;101326.53;;;22.41
74750;BMP280;63269;53.330;-6.288;2023-05-07T07:45:52;101327.56;;;22.44
74750;BMP280;63269;53.330;-6.288;2023-05-07T07:48:18;101325.22;;;22.46
74750;BMP280;63269;53.330;-6.288;2023-05-07T07:50:43;101330.88;;;22.48
74750;BMP280;63269;53.330;-6.288;2023-05-07T07:53:09;101331.22;;;22.50
74750;BMP280;63269;53.330;-6.288;2023-05-07T07:55:38;101331.50;;;22.52
74750;BMP280;63269;53.330;-6.288;2023-05-07T07:58:04;101332.56;;;22.55
74750;BMP280;63269;53.330;-6.288;2023-05-07T08:00:29;101326.38;;;22.58
74750;BMP280;63269;53.330;-6.288;2023-05-07T08:02:54;101333.22;;;22.59
74750;BMP280;63269;53.330;-6.288;2023-05-07T08:05:20;101334.31;;;22.61
74750;BMP280;63269;53.330;-6.288;2023-05-07T08:07:45;101331.19;;;22.63
74750;BMP280;63269;53.330;-6.288;2023-05-07T08:10:12;101331.50;;;22.65
74750;BMP280;63269;53.330;-6.288;2023-05-07T08:12:37;101333.28;;;22.68
74750;BMP280;63269;53.330;-6.288;2023-05-07T08:15:03;101326.34;;;22.71
74750;BMP280;63269;53.330;-6.288;2023-05-07T08:17:28;101322.19;;;22.70
74750;BMP280;63269;53.330;-6.288;2023-05-07T08:19:53;101327.41;;;22.73
74750;BMP280;63269;53.330;-6.288;2023-05-07T08:22:19;101321.63;;;22.75
74750;BMP280;63269;53.330;-6.288;2023-05-07T08:24:44;101323.88;;;22.76
74750;BMP280;63269;53.330;-6.288;2023-05-07T08:27:10;101315.41;;;22.78
74750;BMP280;63269;53.330;-6.288;2023-05-07T08:29:35;101321.50;;;22.78
74750;BMP280;63269;53.330;-6.288;2023-05-07T08:32:01;101324.50;;;22.80
74750;BMP280;63269;53.330;-6.288;2023-05-07T08:34:26;101312.19;;;22.83
74750;BMP280;63269;53.330;-6.288;2023-05-07T08:36:52;101319.78;;;22.84
74750;BMP280;63269;53.330;-6.288;2023-05-07T08:39:17;101322.00;;;22.86
74750;BMP280;63269;53.330;-6.288;2023-05-07T08:41:48;101326.19;;;22.87
74750;BMP280;63269;53.330;-6.288;2023-05-07T08:44:13;101325.78;;;22.89
74750;BMP280;63269;53.330;-6.288;2023-05-07T08:46:41;101333.34;;;22.90
74750;BMP280;63269;53.330;-6.288;2023-05-07T08:49:07;101335.59;;;22.92
74750;BMP280;63269;53.330;-6.288;2023-05-07T08:51:33;101330.56;;;22.94
74750;BMP280;63269;53.330;-6.288;2023-05-07T08:53:59;101335.50;;;22.95
74750;BMP280;63269;53.330;-6.288;2023-05-07T08:56:24;101337.75;;;22.97
74750;BMP280;63269;53.330;-6.288;2023-05-07T08:58:50;101335.78;;;22.97
74750;BMP280;63269;53.330;-6.288;2023-05-07T09:01:16;101339.53;;;23.00
74750;BMP280;63269;53.330;-6.288;2023-05-07T09:03:45;101334.47;;;23.02
74750;BMP280;63269;53.330;-6.288;2023-05-07T09:06:11;101332.13;;;23.04
74750;BMP280;63269;53.330;-6.288;2023-05-07T09:08:36;101332.44;;;23.06
74750;BMP280;63269;53.330;-6.288;2023-05-07T09:11:02;101333.94;;;23.07
74750;BMP280;63269;53.330;-6.288;2023-05-07T09:13:28;101336.91;;;23.09
74750;BMP280;63269;53.330;-6.288;2023-05-07T09:15:54;101337.97;;;23.12
74750;BMP280;63269;53.330;-6.288;2023-05-07T09:18:19;101338.28;;;23.14
74750;BMP280;63269;53.330;-6.288;2023-05-07T09:20:45;101336.38;;;23.14
74750;BMP280;63269;53.330;-6.288;2023-05-07T09:23:10;101338.16;;;23.17
74750;BMP280;63269;53.330;-6.288;2023-05-07T09:25:36;101335.47;;;23.17
74750;BMP280;63269;53.330;-6.288;2023-05-07T09:28:03;101338.50;;;23.19
74750;BMP280;63269;53.330;-6.288;2023-05-07T09:30:29;101335.38;;;23.21
74750;BMP280;63269;53.330;-6.288;2023-05-07T09:32:56;101343.72;;;23.23
74750;BMP280;63269;53.330;-6.288;2023-05-07T09:35:22;101339.13;;;23.23
74750;BMP280;63269;53.330;-6.288;2023-05-07T09:37:49;101337.16;;;23.24
74750;BMP280;63269;53.330;-6.288;2023-05-07T09:42:48;101339.00;;;23.27
74750;BMP280;63269;53.330;-6.288;2023-05-07T09:45:14;101346.13;;;23.30
74750;BMP280;63269;53.330;-6.288;2023-05-07T09:47:42;101342.91;;;23.35
74750;BMP280;63269;53.330;-6.288;2023-05-07T09:50:10;101347.38;;;23.38
74750;BMP280;63269;53.330;-6.288;2023-05-07T09:52:39;101340.69;;;23.43
74750;BMP280;63269;53.330;-6.288;2023-05-07T09:55:07;101344.44;;;23.45
74750;BMP280;63269;53.330;-6.288;2023-05-07T09:57:34;101336.41;;;23.45
74750;BMP280;63269;53.330;-6.288;2023-05-07T10:00:02;101343.25;;;23.46
74750;BMP280;63269;53.330;-6.288;2023-05-07T10:02:30;101334.91;;;23.44
74750;BMP280;63269;53.330;-6.288;2023-05-07T10:04:56;101345.63;;;23.44
74750;BMP280;63269;53.330;-6.288;2023-05-07T10:07:24;101341.47;;;23.43
74750;BMP280;63269;53.330;-6.288;2023-05-07T10:09:50;101329.97;;;23.43
74750;BMP280;63269;53.330;-6.288;2023-05-07T10:12:17;101327.31;;;23.43
74750;BMP280;63269;53.330;-6.288;2023-05-07T10:14:43;101325.84;;;23.42
74750;BMP280;63269;53.330;-6.288;2023-05-07T10:17:11;101319.00;;;23.41
74750;BMP280;63269;53.330;-6.288;2023-05-07T10:19:37;101309.91;;;23.38
74750;BMP280;63269;53.330;-6.288;2023-05-07T10:24:32;101313.91;;;23.34
74750;BMP280;63269;53.330;-6.288;2023-05-07T10:27:00;101312.84;;;23.31
74750;BMP280;63269;53.330;-6.288;2023-05-07T10:32:10;101315.94;;;23.30
74750;BMP280;63269;53.330;-6.288;2023-05-07T10:34:41;101318.28;;;23.27
74750;BMP280;63269;53.330;-6.288;2023-05-07T10:37:07;101330.00;;;23.21
74750;BMP280;63269;53.330;-6.288;2023-05-07T10:39:33;101322.72;;;23.21
74750;BMP280;63269;53.330;-6.288;2023-05-07T10:42:13;101326.47;;;23.24
74750;BMP280;63269;53.330;-6.288;2023-05-07T10:44:39;101328.81;;;23.22
74750;BMP280;63269;53.330;-6.288;2023-05-07T10:47:09;101327.34;;;23.21
74750;BMP280;63269;53.330;-6.288;2023-05-07T10:52:23;101315.88;;;23.20
74750;BMP280;63269;53.330;-6.288;2023-05-07T10:57:46;101324.78;;;23.17
74750;BMP280;63269;53.330;-6.288;2023-05-07T11:03:07;101324.50;;;23.15
74750;BMP280;63269;53.330;-6.288;2023-05-07T11:05:33;101312.28;;;23.14
74750;BMP280;63269;53.330;-6.288;2023-05-07T11:08:02;101324.91;;;23.14
74750;BMP280;63269;53.330;-6.288;2023-05-07T11:13:13;101329.97;;;23.12
74750;BMP280;63269;53.330;-6.288;2023-05-07T11:15:41;101329.22;;;23.11
74750;BMP280;63269;53.330;-6.288;2023-05-07T11:18:08;101335.72;;;23.10
74750;BMP280;63269;53.330;-6.288;2023-05-07T11:20:57;101336.50;;;23.11
74750;BMP280;63269;53.330;-6.288;2023-05-07T11:26:09;101325.44;;;23.09
74750;BMP280;63269;53.330;-6.288;2023-05-07T11:28:38;101321.28;;;23.08
74750;BMP280;63269;53.330;-6.288;2023-05-07T11:31:04;101317.88;;;23.07
74750;BMP280;63269;53.330;-6.288;2023-05-07T11:33:30;101319.81;;;23.06
74750;BMP280;63269;53.330;-6.288;2023-05-07T11:35:56;101327.84;;;23.06
74750;BMP280;63269;53.330;-6.288;2023-05-07T11:38:22;101320.97;;;23.05
74750;BMP280;63269;53.330;-6.288;2023-05-07T11:40:58;101325.59;;;23.05
74750;BMP280;63269;53.330;-6.288;2023-05-07T11:43:29;101329.88;;;23.02
74750;BMP280;63269;53.330;-6.288;2023-05-07T11:46:05;101337.91;;;23.02
74750;BMP280;63269;53.330;-6.288;2023-05-07T11:48:31;101331.78;;;23.02
74750;BMP280;63269;53.330;-6.288;2023-05-07T11:51:04;101330.31;;;23.01
74750;BMP280;63269;53.330;-6.288;2023-05-07T11:53:38;101324.97;;;23.01
74750;BMP280;63269;53.330;-6.288;2023-05-07T11:56:07;101334.19;;;23.00
74750;BMP280;63269;53.330;-6.288;2023-05-07T11:58:33;101326.59;;;22.98
74750;BMP280;63269;53.330;-6.288;2023-05-07T12:00:59;101327.75;;;22.97
74750;BMP280;63269;53.330;-6.288;2023-05-07T12:03:24;101323.13;;;22.98
74750;BMP280;63269;53.330;-6.288;2023-05-07T12:05:50;101332.38;;;22.97
74750;BMP280;63269;53.330;-6.288;2023-05-07T12:08:19;101333.09;;;22.97
74750;BMP280;63269;53.330;-6.288;2023-05-07T12:10:48;101336.22;;;22.96
74750;BMP280;63269;53.330;-6.288;2023-05-07T12:13:18;101336.97;;;22.96
74750;BMP280;63269;53.330;-6.288;2023-05-07T12:15:43;101337.22;;;22.89
74750;BMP280;63269;53.330;-6.288;2023-05-07T12:18:09;101321.47;;;22.91
74750;BMP280;63269;53.330;-6.288;2023-05-07T12:20:36;101321.47;;;22.91
74750;BMP280;63269;53.330;-6.288;2023-05-07T12:23:02;101321.47;;;22.91
74750;BMP280;63269;53.330;-6.288;2023-05-07T12:25:31;101307.34;;;22.91
74750;BMP280;63269;53.330;-6.288;2023-05-07T12:27:57;101315.81;;;22.89
74750;BMP280;63269;53.330;-6.288;2023-05-07T12:30:24;101327.72;;;22.88
74750;BMP280;63269;53.330;-6.288;2023-05-07T12:32:54;101320.41;;;22.89
74750;BMP280;63269;53.330;-6.288;2023-05-07T12:35:29;101318.91;;;22.88
74750;BMP280;63269;53.330;-6.288;2023-05-07T12:37:58;101315.06;;;22.89
74750;BMP280;63269;53.330;-6.288;2023-05-07T12:40:35;101322.34;;;22.88
74750;BMP280;63269;53.330;-6.288;2023-05-07T12:43:00;101315.50;;;22.87
74750;BMP280;63269;53.330;-6.288;2023-05-07T12:45:26;101310.16;;;22.87
74750;BMP280;63269;53.330;-6.288;2023-05-07T12:47:51;101305.53;;;22.88
74750;BMP280;63269;53.330;-6.288;2023-05-07T12:50:17;101304.78;;;22.87
74750;BMP280;63269;53.330;-6.288;2023-05-07T12:52:47;101294.84;;;22.88
74750;BMP280;63269;53.330;-6.288;2023-05-07T12:55:13;101291.94;;;22.82
74750;BMP280;63269;53.330;-6.288;2023-05-07T12:57:47;101293.03;;;22.84
74750;BMP280;63269;53.330;-6.288;2023-05-07T13:00:14;101294.53;;;22.85
74750;BMP280;63269;53.330;-6.288;2023-05-07T13:02:41;101292.59;;;22.86
74750;BMP280;63269;53.330;-6.288;2023-05-07T13:05:09;101309.09;;;22.84
74750;BMP280;63269;53.330;-6.288;2023-05-07T13:07:35;101303.75;;;22.84
74750;BMP280;63269;53.330;-6.288;2023-05-07T13:10:02;101310.56;;;22.85
74750;BMP280;63269;53.330;-6.288;2023-05-07T13:12:27;101310.16;;;22.87
74750;BMP280;63269;53.330;-6.288;2023-05-07T13:14:53;101307.91;;;22.85
74750;BMP280;63269;53.330;-6.288;2023-05-07T13:17:18;101317.41;;;22.86
74750;BMP280;63269;53.330;-6.288;2023-05-07T13:19:44;101326.63;;;22.85
74750;BMP280;63269;53.330;-6.288;2023-05-07T13:22:09;101306.41;;;22.84
74750;BMP280;63269;53.330;-6.288;2023-05-07T13:24:35;101320.06;;;22.86
74750;BMP280;63269;53.330;-6.288;2023-05-07T13:27:00;101325.44;;;22.86
74750;BMP280;63269;53.330;-6.288;2023-05-07T13:29:25;101326.94;;;22.88
74750;BMP280;63269;53.330;-6.288;2023-05-07T13:31:58;101322.00;;;22.86
74750;BMP280;63269;53.330;-6.288;2023-05-07T13:34:24;101344.91;;;22.87
74750;BMP280;63269;53.330;-6.288;2023-05-07T13:36:49;101338.81;;;22.86
74750;BMP280;63269;53.330;-6.288;2023-05-07T13:39:15;101339.56;;;22.87
74750;BMP280;63269;53.330;-6.288;2023-05-07T13:41:41;101338.81;;;22.86
74750;BMP280;63269;53.330;-6.288;2023-05-07T13:44:06;101342.25;;;22.87
74750;BMP280;63269;53.330;-6.288;2023-05-07T13:46:32;101345.34;;;22.85
74750;BMP280;63269;53.330;-6.288;2023-05-07T13:48:57;101350.28;;;22.87
74750;BMP280;63269;53.330;-6.288;2023-05-07T13:51:23;101342.97;;;22.88
74750;BMP280;63269;53.330;-6.288;2023-05-07T13:53:48;101344.91;;;22.87
74750;BMP280;63269;53.330;-6.288;2023-05-07T13:56:14;101334.22;;;22.87
74750;BMP280;63269;53.330;-6.288;2023-05-07T13:58:40;101321.59;;;22.88
74750;BMP280;63269;53.330;-6.288;2023-05-07T14:01:05;101334.22;;;22.87